sensor_id;sensor_type;location;lat;lon;timestamp;P1;durP1;ratioP1;P2;durP2;ratioP2
12535;SDS011;6334;48.696;2.114;2023-02-22T00:02:26;15.80;;;10.10;;
12535;SDS011;6334;48.696;2.114;2023-02-22T00:04:56;16.00;;;10.38;;
12535;SDS011;6334;48.696;2.114;2023-02-22T00:07:27;16.73;;;11.20;;
12535;SDS011;6334;48.696;2.114;2023-02-22T00:09:58;16.33;;;11.03;;
12535;SDS011;6334;48.696;2.114;2023-02-22T00:12:28;18.60;;;11.60;;
12535;SDS011;6334;48.696;2.114;2023-02-22T00:15:01;16.58;;;11.66;;
12535;SDS011;6334;48.696;2.114;2023-02-22T00:17:34;18.42;;;11.94;;
12535;SDS011;6334;48.696;2.114;2023-02-22T00:20:04;17.18;;;11.43;;
12535;SDS011;6334;48.696;2.114;2023-02-22T00:22:35;17.83;;;12.13;;
12535;SDS011;6334;48.696;2.114;2023-02-22T00:25:06;16.15;;;11.95;;
12535;SDS011;6334;48.696;2.114;2023-02-22T00:27:37;15.47;;;9.77;;
12535;SDS011;6334;48.696;2.114;2023-02-22T00:30:07;18.00;;;11.20;;
12535;SDS011;6334;48.696;2.114;2023-02-22T00:32:36;14.97;;;9.47;;
12535;SDS011;6334;48.696;2.114;2023-02-22T00:35:09;18.87;;;12.10;;
12535;SDS011;6334;48.696;2.114;2023-02-22T00:37:39;17.96;;;11.62;;
12535;SDS011;6334;48.696;2.114;2023-02-22T00:40:10;16.20;;;11.17;;
12535;SDS011;6334;48.696;2.114;2023-02-22T00:42:41;17.15;;;11.27;;
12535;SDS011;6334;48.696;2.114;2023-02-22T00:45:12;17.33;;;12.26;;
12535;SDS011;6334;48.696;2.114;2023-02-22T00:47:41;17.13;;;12.17;;
12535;SDS011;6334;48.696;2.114;2023-02-22T00:50:12;16.33;;;11.90;;
12535;SDS011;6334;48.696;2.114;2023-02-22T00:52:43;16.65;;;12.27;;
12535;SDS011;6334;48.696;2.114;2023-02-22T00:55:24;16.37;;;12.22;;
12535;SDS011;6334;48.696;2.114;2023-02-22T00:57:53;18.50;;;12.73;;
12535;SDS011;6334;48.696;2.114;2023-02-22T01:00:24;17.47;;;11.40;;
12535;SDS011;6334;48.696;2.114;2023-02-22T01:02:54;16.33;;;11.20;;
12535;SDS011;6334;48.696;2.114;2023-02-22T01:05:25;16.07;;;10.73;;
12535;SDS011;6334;48.696;2.114;2023-02-22T01:07:55;17.30;;;11.47;;
12535;SDS011;6334;48.696;2.114;2023-02-22T01:10:27;16.98;;;11.38;;
12535;SDS011;6334;48.696;2.114;2023-02-22T01:12:55;16.90;;;10.63;;
12535;SDS011;6334;48.696;2.114;2023-02-22T01:15:27;13.86;;;9.38;;
12535;SDS011;6334;48.696;2.114;2023-02-22T01:17:57;13.05;;;8.67;;
12535;SDS011;6334;48.696;2.114;2023-02-22T01:20:27;14.23;;;9.73;;
12535;SDS011;6334;48.696;2.114;2023-02-22T01:22:57;13.27;;;9.57;;
12535;SDS011;6334;48.696;2.114;2023-02-22T01:25:28;14.60;;;9.77;;
12535;SDS011;6334;48.696;2.114;2023-02-22T01:27:58;13.70;;;9.47;;
12535;SDS011;6334;48.696;2.114;2023-02-22T01:30:33;14.39;;;10.17;;
12535;SDS011;6334;48.696;2.114;2023-02-22T01:33:03;15.23;;;9.70;;
12535;SDS011;6334;48.696;2.114;2023-02-22T01:35:34;14.80;;;9.48;;
12535;SDS011;6334;48.696;2.114;2023-02-22T01:38:03;13.17;;;9.27;;
12535;SDS011;6334;48.696;2.114;2023-02-22T01:40:36;14.85;;;8.73;;
12535;SDS011;6334;48.696;2.114;2023-02-22T01:48:41;13.27;;;9.17;;
12535;SDS011;6334;48.696;2.114;2023-02-22T01:51:15;13.93;;;9.10;;
12535;SDS011;6334;48.696;2.114;2023-02-22T01:53:52;14.90;;;9.57;;
12535;SDS011;6334;48.696;2.114;2023-02-22T01:56:21;14.17;;;9.40;;
12535;SDS011;6334;48.696;2.114;2023-02-22T01:58:52;13.57;;;8.50;;
12535;SDS011;6334;48.696;2.114;2023-02-22T02:01:20;13.93;;;8.97;;
12535;SDS011;6334;48.696;2.114;2023-02-22T02:03:49;13.40;;;9.30;;
12535;SDS011;6334;48.696;2.114;2023-02-22T02:06:20;16.83;;;9.20;;
12535;SDS011;6334;48.696;2.114;2023-02-22T02:11:44;13.13;;;8.90;;
12535;SDS011;6334;48.696;2.114;2023-02-22T02:14:18;14.30;;;8.66;;
12535;SDS011;6334;48.696;2.114;2023-02-22T02:16:50;13.80;;;9.53;;
12535;SDS011;6334;48.696;2.114;2023-02-22T02:22:18;12.37;;;8.43;;
12535;SDS011;6334;48.696;2.114;2023-02-22T02:38:31;16.47;;;10.47;;
12535;SDS011;6334;48.696;2.114;2023-02-22T02:43:41;14.76;;;9.99;;
12535;SDS011;6334;48.696;2.114;2023-02-22T02:46:14;16.47;;;10.77;;
12535;SDS011;6334;48.696;2.114;2023-02-22T02:48:48;14.10;;;9.60;;
12535;SDS011;6334;48.696;2.114;2023-02-22T02:51:16;13.93;;;9.63;;
12535;SDS011;6334;48.696;2.114;2023-02-22T02:53:46;13.43;;;9.33;;
12535;SDS011;6334;48.696;2.114;2023-02-22T02:56:16;14.18;;;9.63;;
12535;SDS011;6334;48.696;2.114;2023-02-22T02:58:50;15.17;;;10.76;;
12535;SDS011;6334;48.696;2.114;2023-02-22T03:01:34;14.20;;;10.27;;
12535;SDS011;6334;48.696;2.114;2023-02-22T03:04:09;15.03;;;8.77;;
12535;SDS011;6334;48.696;2.114;2023-02-22T03:07:01;12.39;;;8.74;;
12535;SDS011;6334;48.696;2.114;2023-02-22T03:12:36;14.33;;;9.87;;
12535;SDS011;6334;48.696;2.114;2023-02-22T03:15:06;14.27;;;9.57;;
12535;SDS011;6334;48.696;2.114;2023-02-22T03:17:53;17.50;;;10.30;;
12535;SDS011;6334;48.696;2.114;2023-02-22T03:20:47;13.27;;;9.33;;
12535;SDS011;6334;48.696;2.114;2023-02-22T03:23:24;14.07;;;9.08;;
12535;SDS011;6334;48.696;2.114;2023-02-22T03:26:01;15.87;;;9.93;;
12535;SDS011;6334;48.696;2.114;2023-02-22T03:28:31;17.50;;;10.23;;
12535;SDS011;6334;48.696;2.114;2023-02-22T03:31:07;13.70;;;9.97;;
12535;SDS011;6334;48.696;2.114;2023-02-22T03:33:39;17.23;;;10.40;;
12535;SDS011;6334;48.696;2.114;2023-02-22T03:36:13;14.23;;;10.23;;
12535;SDS011;6334;48.696;2.114;2023-02-22T03:38:43;15.03;;;10.30;;
12535;SDS011;6334;48.696;2.114;2023-02-22T03:41:13;17.63;;;10.77;;
12535;SDS011;6334;48.696;2.114;2023-02-22T03:43:48;14.28;;;10.62;;
12535;SDS011;6334;48.696;2.114;2023-02-22T03:46:18;15.93;;;11.10;;
12535;SDS011;6334;48.696;2.114;2023-02-22T03:48:49;15.67;;;10.63;;
12535;SDS011;6334;48.696;2.114;2023-02-22T03:51:36;15.42;;;9.98;;
12535;SDS011;6334;48.696;2.114;2023-02-22T03:54:13;15.25;;;10.51;;
12535;SDS011;6334;48.696;2.114;2023-02-22T03:56:44;16.23;;;11.17;;
12535;SDS011;6334;48.696;2.114;2023-02-22T03:59:13;16.18;;;10.20;;
12535;SDS011;6334;48.696;2.114;2023-02-22T04:01:43;14.30;;;10.00;;
12535;SDS011;6334;48.696;2.114;2023-02-22T04:04:13;15.07;;;10.77;;
12535;SDS011;6334;48.696;2.114;2023-02-22T04:06:47;14.82;;;10.23;;
12535;SDS011;6334;48.696;2.114;2023-02-22T04:09:17;14.10;;;10.28;;
12535;SDS011;6334;48.696;2.114;2023-02-22T04:11:48;15.33;;;10.00;;
12535;SDS011;6334;48.696;2.114;2023-02-22T04:14:20;15.14;;;10.98;;
12535;SDS011;6334;48.696;2.114;2023-02-22T04:16:55;17.23;;;11.17;;
12535;SDS011;6334;48.696;2.114;2023-02-22T04:19:26;15.17;;;11.30;;
12535;SDS011;6334;48.696;2.114;2023-02-22T04:21:56;13.92;;;10.54;;
12535;SDS011;6334;48.696;2.114;2023-02-22T04:24:30;15.10;;;10.71;;
12535;SDS011;6334;48.696;2.114;2023-02-22T04:27:00;15.63;;;10.87;;
12535;SDS011;6334;48.696;2.114;2023-02-22T04:29:31;15.30;;;11.13;;
12535;SDS011;6334;48.696;2.114;2023-02-22T04:32:03;14.63;;;11.20;;
12535;SDS011;6334;48.696;2.114;2023-02-22T04:34:33;17.03;;;11.87;;
12535;SDS011;6334;48.696;2.114;2023-02-22T04:37:13;15.07;;;10.77;;
12535;SDS011;6334;48.696;2.114;2023-02-22T04:39:43;15.37;;;11.70;;
12535;SDS011;6334;48.696;2.114;2023-02-22T04:42:16;19.23;;;12.77;;
12535;SDS011;6334;48.696;2.114;2023-02-22T04:44:46;14.50;;;10.56;;
12535;SDS011;6334;48.696;2.114;2023-02-22T04:47:17;18.47;;;11.80;;
12535;SDS011;6334;48.696;2.114;2023-02-22T04:49:47;16.53;;;11.47;;
12535;SDS011;6334;48.696;2.114;2023-02-22T04:52:23;16.99;;;11.62;;
12535;SDS011;6334;48.696;2.114;2023-02-22T04:54:54;18.02;;;12.10;;
12535;SDS011;6334;48.696;2.114;2023-02-22T04:57:26;19.03;;;11.77;;
12535;SDS011;6334;48.696;2.114;2023-02-22T04:59:56;16.17;;;11.57;;
12535;SDS011;6334;48.696;2.114;2023-02-22T05:02:29;16.43;;;11.58;;
12535;SDS011;6334;48.696;2.114;2023-02-22T05:04:59;15.60;;;11.03;;
12535;SDS011;6334;48.696;2.114;2023-02-22T05:07:29;16.44;;;11.04;;
12535;SDS011;6334;48.696;2.114;2023-02-22T05:10:01;17.17;;;11.90;;
12535;SDS011;6334;48.696;2.114;2023-02-22T05:12:34;19.90;;;12.26;;
12535;SDS011;6334;48.696;2.114;2023-02-22T05:15:05;16.93;;;11.80;;
12535;SDS011;6334;48.696;2.114;2023-02-22T05:17:34;17.76;;;12.06;;
12535;SDS011;6334;48.696;2.114;2023-02-22T05:20:05;15.77;;;11.77;;
12535;SDS011;6334;48.696;2.114;2023-02-22T05:22:38;16.02;;;11.96;;
12535;SDS011;6334;48.696;2.114;2023-02-22T05:25:09;17.60;;;12.13;;
12535;SDS011;6334;48.696;2.114;2023-02-22T05:27:40;17.40;;;11.57;;
12535;SDS011;6334;48.696;2.114;2023-02-22T05:30:09;16.57;;;11.43;;
12535;SDS011;6334;48.696;2.114;2023-02-22T05:32:41;16.60;;;11.93;;
12535;SDS011;6334;48.696;2.114;2023-02-22T05:35:12;16.35;;;11.20;;
12535;SDS011;6334;48.696;2.114;2023-02-22T05:37:44;15.64;;;11.06;;
12535;SDS011;6334;48.696;2.114;2023-02-22T05:40:19;15.17;;;10.73;;
12535;SDS011;6334;48.696;2.114;2023-02-22T05:42:45;15.13;;;10.87;;
12535;SDS011;6334;48.696;2.114;2023-02-22T05:45:16;16.80;;;12.07;;
12535;SDS011;6334;48.696;2.114;2023-02-22T05:47:46;16.83;;;11.47;;
12535;SDS011;6334;48.696;2.114;2023-02-22T05:50:16;17.65;;;12.30;;
12535;SDS011;6334;48.696;2.114;2023-02-22T05:52:46;16.73;;;11.68;;
12535;SDS011;6334;48.696;2.114;2023-02-22T05:55:21;17.53;;;12.23;;
12535;SDS011;6334;48.696;2.114;2023-02-22T05:57:51;16.87;;;11.30;;
12535;SDS011;6334;48.696;2.114;2023-02-22T06:00:29;17.17;;;12.28;;
12535;SDS011;6334;48.696;2.114;2023-02-22T06:03:00;17.48;;;11.90;;
12535;SDS011;6334;48.696;2.114;2023-02-22T06:05:29;16.23;;;11.57;;
12535;SDS011;6334;48.696;2.114;2023-02-22T06:08:01;16.77;;;12.00;;
12535;SDS011;6334;48.696;2.114;2023-02-22T06:10:29;15.87;;;11.23;;
12535;SDS011;6334;48.696;2.114;2023-02-22T06:13:00;18.00;;;12.33;;
12535;SDS011;6334;48.696;2.114;2023-02-22T06:15:30;17.57;;;11.97;;
12535;SDS011;6334;48.696;2.114;2023-02-22T06:18:01;16.13;;;11.20;;
12535;SDS011;6334;48.696;2.114;2023-02-22T06:20:31;17.17;;;11.30;;
12535;SDS011;6334;48.696;2.114;2023-02-22T06:23:05;17.63;;;12.14;;
12535;SDS011;6334;48.696;2.114;2023-02-22T06:25:37;17.40;;;11.88;;
12535;SDS011;6334;48.696;2.114;2023-02-22T06:28:10;17.18;;;12.56;;
12535;SDS011;6334;48.696;2.114;2023-02-22T06:30:42;18.13;;;12.60;;
12535;SDS011;6334;48.696;2.114;2023-02-22T06:33:13;16.77;;;12.43;;
12535;SDS011;6334;48.696;2.114;2023-02-22T06:35:42;18.57;;;12.60;;
12535;SDS011;6334;48.696;2.114;2023-02-22T06:38:23;16.97;;;11.97;;
12535;SDS011;6334;48.696;2.114;2023-02-22T06:40:55;17.77;;;12.61;;
12535;SDS011;6334;48.696;2.114;2023-02-22T06:43:25;18.23;;;12.43;;
12535;SDS011;6334;48.696;2.114;2023-02-22T06:46:02;17.49;;;12.61;;
12535;SDS011;6334;48.696;2.114;2023-02-22T06:48:32;18.17;;;12.50;;
12535;SDS011;6334;48.696;2.114;2023-02-22T06:51:06;18.94;;;13.26;;
12535;SDS011;6334;48.696;2.114;2023-02-22T06:53:41;18.43;;;13.43;;
12535;SDS011;6334;48.696;2.114;2023-02-22T06:56:12;19.23;;;14.13;;
12535;SDS011;6334;48.696;2.114;2023-02-22T06:58:43;20.14;;;13.92;;
12535;SDS011;6334;48.696;2.114;2023-02-22T07:01:21;19.11;;;13.97;;
12535;SDS011;6334;48.696;2.114;2023-02-22T07:03:51;19.00;;;13.37;;
12535;SDS011;6334;48.696;2.114;2023-02-22T07:06:26;19.60;;;14.50;;
12535;SDS011;6334;48.696;2.114;2023-02-22T07:08:56;19.87;;;14.20;;
12535;SDS011;6334;48.696;2.114;2023-02-22T07:11:41;19.47;;;13.81;;
12535;SDS011;6334;48.696;2.114;2023-02-22T07:25:42;22.60;;;15.23;;
12535;SDS011;6334;48.696;2.114;2023-02-22T07:28:13;21.63;;;15.10;;
12535;SDS011;6334;48.696;2.114;2023-02-22T07:30:47;20.16;;;13.95;;
12535;SDS011;6334;48.696;2.114;2023-02-22T07:33:20;20.74;;;14.50;;
12535;SDS011;6334;48.696;2.114;2023-02-22T07:35:54;23.55;;;15.78;;
12535;SDS011;6334;48.696;2.114;2023-02-22T07:38:25;22.03;;;15.62;;
12535;SDS011;6334;48.696;2.114;2023-02-22T07:40:56;26.22;;;16.40;;
12535;SDS011;6334;48.696;2.114;2023-02-22T07:43:27;24.33;;;16.60;;
12535;SDS011;6334;48.696;2.114;2023-02-22T07:46:00;24.48;;;16.65;;
12535;SDS011;6334;48.696;2.114;2023-02-22T07:48:30;25.07;;;16.80;;
12535;SDS011;6334;48.696;2.114;2023-02-22T07:51:00;22.87;;;15.70;;
12535;SDS011;6334;48.696;2.114;2023-02-22T07:53:34;24.92;;;16.54;;
12535;SDS011;6334;48.696;2.114;2023-02-22T07:56:05;24.71;;;17.86;;
12535;SDS011;6334;48.696;2.114;2023-02-22T07:58:49;23.69;;;17.37;;
12535;SDS011;6334;48.696;2.114;2023-02-22T08:04:11;27.67;;;19.02;;
12535;SDS011;6334;48.696;2.114;2023-02-22T08:06:40;28.87;;;19.40;;
12535;SDS011;6334;48.696;2.114;2023-02-22T08:09:10;23.38;;;16.80;;
12535;SDS011;6334;48.696;2.114;2023-02-22T08:11:40;26.03;;;18.33;;
12535;SDS011;6334;48.696;2.114;2023-02-22T08:17:19;25.93;;;17.40;;
12535;SDS011;6334;48.696;2.114;2023-02-22T08:23:30;29.80;;;20.17;;
12535;SDS011;6334;48.696;2.114;2023-02-22T08:26:16;36.25;;;25.11;;
12535;SDS011;6334;48.696;2.114;2023-02-22T08:28:47;30.07;;;20.50;;
12535;SDS011;6334;48.696;2.114;2023-02-22T08:31:17;28.73;;;19.87;;
12535;SDS011;6334;48.696;2.114;2023-02-22T08:33:57;29.39;;;20.52;;
12535;SDS011;6334;48.696;2.114;2023-02-22T08:40:20;26.93;;;18.73;;
12535;SDS011;6334;48.696;2.114;2023-02-22T09:16:59;27.48;;;18.31;;
12535;SDS011;6334;48.696;2.114;2023-02-22T09:19:35;24.91;;;18.03;;
12535;SDS011;6334;48.696;2.114;2023-02-22T10:25:00;25.21;;;15.32;;
12535;SDS011;6334;48.696;2.114;2023-02-22T10:46:39;24.05;;;16.83;;
12535;SDS011;6334;48.696;2.114;2023-02-22T11:17:51;19.46;;;12.92;;
12535;SDS011;6334;48.696;2.114;2023-02-22T11:24:29;22.67;;;15.50;;
12535;SDS011;6334;48.696;2.114;2023-02-22T11:30:38;23.06;;;15.20;;
12535;SDS011;6334;48.696;2.114;2023-02-22T11:42:12;20.95;;;13.42;;
12535;SDS011;6334;48.696;2.114;2023-02-22T11:51:40;18.40;;;12.93;;
12535;SDS011;6334;48.696;2.114;2023-02-22T12:22:07;18.54;;;11.83;;
12535;SDS011;6334;48.696;2.114;2023-02-22T13:02:27;15.77;;;9.87;;
12535;SDS011;6334;48.696;2.114;2023-02-22T13:56:07;14.88;;;8.79;;
12535;SDS011;6334;48.696;2.114;2023-02-22T14:09:58;14.26;;;8.45;;
12535;SDS011;6334;48.696;2.114;2023-02-22T14:38:13;13.90;;;7.20;;
12535;SDS011;6334;48.696;2.114;2023-02-22T14:53:21;11.85;;;7.60;;
12535;SDS011;6334;48.696;2.114;2023-02-22T14:59:32;11.17;;;7.11;;
12535;SDS011;6334;48.696;2.114;2023-02-22T15:09:11;10.17;;;7.10;;
12535;SDS011;6334;48.696;2.114;2023-02-22T15:28:02;8.18;;;5.75;;
12535;SDS011;6334;48.696;2.114;2023-02-22T15:30:30;11.15;;;7.47;;
12535;SDS011;6334;48.696;2.114;2023-02-22T15:33:15;11.78;;;7.80;;
12535;SDS011;6334;48.696;2.114;2023-02-22T15:35:43;13.03;;;7.98;;
12535;SDS011;6334;48.696;2.114;2023-02-22T15:38:28;13.59;;;8.93;;
12535;SDS011;6334;48.696;2.114;2023-02-22T15:43:57;12.77;;;8.72;;
12535;SDS011;6334;48.696;2.114;2023-02-22T15:46:41;13.08;;;8.94;;
12535;SDS011;6334;48.696;2.114;2023-02-22T15:49:18;13.35;;;8.70;;
12535;SDS011;6334;48.696;2.114;2023-02-22T15:51:50;13.10;;;9.02;;
12535;SDS011;6334;48.696;2.114;2023-02-22T15:54:27;13.05;;;8.98;;
12535;SDS011;6334;48.696;2.114;2023-02-22T15:57:03;11.22;;;7.88;;
12535;SDS011;6334;48.696;2.114;2023-02-22T15:59:38;11.40;;;8.44;;
12535;SDS011;6334;48.696;2.114;2023-02-22T16:14:29;11.57;;;7.23;;
12535;SDS011;6334;48.696;2.114;2023-02-22T16:22:46;12.48;;;8.43;;
12535;SDS011;6334;48.696;2.114;2023-02-22T16:28:01;12.82;;;8.18;;
12535;SDS011;6334;48.696;2.114;2023-02-22T16:30:34;12.83;;;8.63;;
12535;SDS011;6334;48.696;2.114;2023-02-22T16:33:06;12.93;;;8.68;;
12535;SDS011;6334;48.696;2.114;2023-02-22T16:38:44;20.08;;;13.00;;
12535;SDS011;6334;48.696;2.114;2023-02-22T16:41:14;20.87;;;12.90;;
12535;SDS011;6334;48.696;2.114;2023-02-22T16:43:47;22.56;;;13.90;;
12535;SDS011;6334;48.696;2.114;2023-02-22T16:46:18;25.27;;;14.87;;
12535;SDS011;6334;48.696;2.114;2023-02-22T16:48:48;22.77;;;14.00;;
12535;SDS011;6334;48.696;2.114;2023-02-22T16:51:24;20.83;;;13.00;;
12535;SDS011;6334;48.696;2.114;2023-02-22T16:53:51;19.40;;;13.03;;
12535;SDS011;6334;48.696;2.114;2023-02-22T16:56:25;17.80;;;11.77;;
12535;SDS011;6334;48.696;2.114;2023-02-22T16:58:55;16.60;;;11.97;;
12535;SDS011;6334;48.696;2.114;2023-02-22T17:01:25;15.57;;;11.13;;
12535;SDS011;6334;48.696;2.114;2023-02-22T17:03:55;19.57;;;13.60;;
12535;SDS011;6334;48.696;2.114;2023-02-22T17:06:25;16.83;;;12.37;;
12535;SDS011;6334;48.696;2.114;2023-02-22T17:08:54;19.43;;;13.17;;
12535;SDS011;6334;48.696;2.114;2023-02-22T17:11:26;17.83;;;12.63;;
12535;SDS011;6334;48.696;2.114;2023-02-22T17:13:57;16.07;;;11.83;;
12535;SDS011;6334;48.696;2.114;2023-02-22T17:16:27;15.13;;;10.47;;
12535;SDS011;6334;48.696;2.114;2023-02-22T17:18:56;16.37;;;11.20;;
12535;SDS011;6334;48.696;2.114;2023-02-22T17:21:26;19.53;;;12.23;;
12535;SDS011;6334;48.696;2.114;2023-02-22T17:23:56;17.20;;;11.20;;
12535;SDS011;6334;48.696;2.114;2023-02-22T17:26:25;20.43;;;12.23;;
12535;SDS011;6334;48.696;2.114;2023-02-22T17:28:56;17.67;;;11.40;;
12535;SDS011;6334;48.696;2.114;2023-02-22T17:31:26;18.10;;;10.30;;
12535;SDS011;6334;48.696;2.114;2023-02-22T17:33:56;19.95;;;11.80;;
12535;SDS011;6334;48.696;2.114;2023-02-22T17:36:28;17.03;;;11.37;;
12535;SDS011;6334;48.696;2.114;2023-02-22T17:38:58;20.10;;;13.77;;
12535;SDS011;6334;48.696;2.114;2023-02-22T17:41:28;18.97;;;13.40;;
12535;SDS011;6334;48.696;2.114;2023-02-22T17:43:58;16.83;;;11.57;;
12535;SDS011;6334;48.696;2.114;2023-02-22T17:46:46;18.94;;;11.86;;
12535;SDS011;6334;48.696;2.114;2023-02-22T17:58:30;14.13;;;9.53;;
12535;SDS011;6334;48.696;2.114;2023-02-22T18:34:40;13.84;;;9.01;;
12535;SDS011;6334;48.696;2.114;2023-02-22T19:00:14;14.95;;;8.43;;
12535;SDS011;6334;48.696;2.114;2023-02-22T19:02:44;16.95;;;10.77;;
12535;SDS011;6334;48.696;2.114;2023-02-22T19:05:15;12.97;;;9.33;;
12535;SDS011;6334;48.696;2.114;2023-02-22T19:07:45;16.20;;;10.73;;
12535;SDS011;6334;48.696;2.114;2023-02-22T19:10:16;15.15;;;9.90;;
12535;SDS011;6334;48.696;2.114;2023-02-22T19:12:46;18.73;;;11.43;;
12535;SDS011;6334;48.696;2.114;2023-02-22T19:15:16;19.70;;;12.83;;
12535;SDS011;6334;48.696;2.114;2023-02-22T19:17:48;16.20;;;11.07;;
12535;SDS011;6334;48.696;2.114;2023-02-22T19:20:18;17.20;;;11.13;;
12535;SDS011;6334;48.696;2.114;2023-02-22T19:22:48;14.00;;;9.57;;
12535;SDS011;6334;48.696;2.114;2023-02-22T19:25:20;13.84;;;9.70;;
12535;SDS011;6334;48.696;2.114;2023-02-22T19:27:54;15.02;;;10.21;;
12535;SDS011;6334;48.696;2.114;2023-02-22T19:30:24;17.55;;;11.27;;
12535;SDS011;6334;48.696;2.114;2023-02-22T19:32:54;16.50;;;11.17;;
12535;SDS011;6334;48.696;2.114;2023-02-22T19:35:24;14.00;;;9.83;;
12535;SDS011;6334;48.696;2.114;2023-02-22T19:37:56;13.10;;;8.73;;
12535;SDS011;6334;48.696;2.114;2023-02-22T19:40:23;17.80;;;11.13;;
12535;SDS011;6334;48.696;2.114;2023-02-22T19:42:53;16.13;;;10.40;;
12535;SDS011;6334;48.696;2.114;2023-02-22T19:45:37;17.03;;;10.73;;
12535;SDS011;6334;48.696;2.114;2023-02-22T19:48:04;16.66;;;11.71;;
12535;SDS011;6334;48.696;2.114;2023-02-22T19:50:34;14.67;;;10.30;;
12535;SDS011;6334;48.696;2.114;2023-02-22T19:53:04;14.87;;;10.67;;
12535;SDS011;6334;48.696;2.114;2023-02-22T19:55:35;14.93;;;9.80;;
12535;SDS011;6334;48.696;2.114;2023-02-22T19:58:09;14.63;;;9.62;;
12535;SDS011;6334;48.696;2.114;2023-02-22T20:00:39;14.30;;;9.47;;
12535;SDS011;6334;48.696;2.114;2023-02-22T20:03:09;14.13;;;9.47;;
12535;SDS011;6334;48.696;2.114;2023-02-22T20:05:40;15.33;;;10.07;;
12535;SDS011;6334;48.696;2.114;2023-02-22T20:08:11;15.57;;;10.63;;
12535;SDS011;6334;48.696;2.114;2023-02-22T20:10:41;15.97;;;10.70;;
12535;SDS011;6334;48.696;2.114;2023-02-22T20:13:11;19.10;;;10.73;;
12535;SDS011;6334;48.696;2.114;2023-02-22T20:15:41;15.00;;;10.83;;
12535;SDS011;6334;48.696;2.114;2023-02-22T20:18:10;15.70;;;11.10;;
12535;SDS011;6334;48.696;2.114;2023-02-22T20:20:40;16.53;;;10.77;;
12535;SDS011;6334;48.696;2.114;2023-02-22T20:23:12;15.13;;;11.13;;
12535;SDS011;6334;48.696;2.114;2023-02-22T20:25:41;14.77;;;9.93;;
12535;SDS011;6334;48.696;2.114;2023-02-22T20:28:12;13.03;;;8.17;;
12535;SDS011;6334;48.696;2.114;2023-02-22T20:30:44;12.20;;;8.47;;
12535;SDS011;6334;48.696;2.114;2023-02-22T20:33:15;12.44;;;8.07;;
12535;SDS011;6334;48.696;2.114;2023-02-22T20:35:45;13.10;;;8.70;;
12535;SDS011;6334;48.696;2.114;2023-02-22T20:38:14;13.60;;;8.73;;
12535;SDS011;6334;48.696;2.114;2023-02-22T20:40:44;12.10;;;7.93;;
12535;SDS011;6334;48.696;2.114;2023-02-22T20:43:22;14.44;;;9.66;;
12535;SDS011;6334;48.696;2.114;2023-02-22T20:45:52;16.57;;;10.57;;
12535;SDS011;6334;48.696;2.114;2023-02-22T20:51:27;15.45;;;10.52;;
12535;SDS011;6334;48.696;2.114;2023-02-22T20:54:03;13.80;;;9.27;;
12535;SDS011;6334;48.696;2.114;2023-02-22T20:56:33;14.93;;;10.23;;
12535;SDS011;6334;48.696;2.114;2023-02-22T20:59:03;14.24;;;9.53;;
12535;SDS011;6334;48.696;2.114;2023-02-22T21:01:35;14.35;;;9.37;;
12535;SDS011;6334;48.696;2.114;2023-02-22T21:04:05;14.80;;;9.48;;
12535;SDS011;6334;48.696;2.114;2023-02-22T21:06:36;15.74;;;9.32;;
12535;SDS011;6334;48.696;2.114;2023-02-22T21:09:08;13.20;;;8.87;;
12535;SDS011;6334;48.696;2.114;2023-02-22T21:11:37;12.87;;;8.30;;
12535;SDS011;6334;48.696;2.114;2023-02-22T21:14:10;12.06;;;7.88;;
12535;SDS011;6334;48.696;2.114;2023-02-22T21:16:38;12.63;;;8.15;;
12535;SDS011;6334;48.696;2.114;2023-02-22T21:19:08;11.87;;;7.60;;
12535;SDS011;6334;48.696;2.114;2023-02-22T21:21:39;12.60;;;7.87;;
12535;SDS011;6334;48.696;2.114;2023-02-22T21:24:10;13.19;;;7.68;;
12535;SDS011;6334;48.696;2.114;2023-02-22T21:26:41;13.48;;;8.05;;
12535;SDS011;6334;48.696;2.114;2023-02-22T21:29:12;11.23;;;6.87;;
12535;SDS011;6334;48.696;2.114;2023-02-22T21:31:42;11.37;;;7.70;;
12535;SDS011;6334;48.696;2.114;2023-02-22T21:34:12;12.17;;;7.60;;
12535;SDS011;6334;48.696;2.114;2023-02-22T21:36:41;10.33;;;7.00;;
12535;SDS011;6334;48.696;2.114;2023-02-22T21:39:12;9.57;;;6.17;;
12535;SDS011;6334;48.696;2.114;2023-02-22T21:41:45;10.77;;;6.93;;
12535;SDS011;6334;48.696;2.114;2023-02-22T21:44:14;9.97;;;5.83;;
12535;SDS011;6334;48.696;2.114;2023-02-22T21:46:43;8.63;;;5.53;;
12535;SDS011;6334;48.696;2.114;2023-02-22T21:49:13;8.99;;;5.42;;
12535;SDS011;6334;48.696;2.114;2023-02-22T21:51:49;9.32;;;5.54;;
12535;SDS011;6334;48.696;2.114;2023-02-22T21:54:18;8.14;;;5.80;;
12535;SDS011;6334;48.696;2.114;2023-02-22T21:56:52;8.39;;;5.57;;
12535;SDS011;6334;48.696;2.114;2023-02-22T21:59:21;7.63;;;5.53;;
12535;SDS011;6334;48.696;2.114;2023-02-22T22:01:53;8.10;;;5.10;;
12535;SDS011;6334;48.696;2.114;2023-02-22T22:04:24;6.19;;;5.21;;
12535;SDS011;6334;48.696;2.114;2023-02-22T22:06:53;7.18;;;5.28;;
12535;SDS011;6334;48.696;2.114;2023-02-22T22:09:24;6.45;;;4.93;;
12535;SDS011;6334;48.696;2.114;2023-02-22T22:11:55;8.73;;;5.60;;
12535;SDS011;6334;48.696;2.114;2023-02-22T22:14:25;6.63;;;5.23;;
12535;SDS011;6334;48.696;2.114;2023-02-22T22:16:55;8.83;;;5.67;;
12535;SDS011;6334;48.696;2.114;2023-02-22T22:19:27;8.57;;;5.33;;
12535;SDS011;6334;48.696;2.114;2023-02-22T22:21:56;8.00;;;5.10;;
12535;SDS011;6334;48.696;2.114;2023-02-22T22:24:32;8.67;;;5.64;;
12535;SDS011;6334;48.696;2.114;2023-02-22T22:27:02;9.50;;;5.50;;
12535;SDS011;6334;48.696;2.114;2023-02-22T22:29:32;7.47;;;4.87;;
12535;SDS011;6334;48.696;2.114;2023-02-22T22:32:03;8.16;;;4.63;;
12535;SDS011;6334;48.696;2.114;2023-02-22T22:34:36;5.11;;;4.40;;
12535;SDS011;6334;48.696;2.114;2023-02-22T22:37:06;5.37;;;4.63;;
12535;SDS011;6334;48.696;2.114;2023-02-22T22:39:35;6.57;;;4.47;;
12535;SDS011;6334;48.696;2.114;2023-02-22T22:42:06;6.53;;;4.63;;
12535;SDS011;6334;48.696;2.114;2023-02-22T22:44:36;8.23;;;4.53;;
12535;SDS011;6334;48.696;2.114;2023-02-22T22:47:08;7.53;;;4.80;;
12535;SDS011;6334;48.696;2.114;2023-02-22T22:49:38;7.24;;;4.51;;
12535;SDS011;6334;48.696;2.114;2023-02-22T22:52:08;7.28;;;4.68;;
12535;SDS011;6334;48.696;2.114;2023-02-22T22:54:38;6.73;;;4.30;;
12535;SDS011;6334;48.696;2.114;2023-02-22T22:57:08;6.90;;;4.62;;
12535;SDS011;6334;48.696;2.114;2023-02-22T22:59:37;7.53;;;4.33;;
12535;SDS011;6334;48.696;2.114;2023-02-22T23:02:16;6.72;;;4.35;;
12535;SDS011;6334;48.696;2.114;2023-02-22T23:04:49;9.10;;;5.23;;
12535;SDS011;6334;48.696;2.114;2023-02-22T23:07:18;5.57;;;4.20;;
12535;SDS011;6334;48.696;2.114;2023-02-22T23:09:48;10.18;;;4.65;;
12535;SDS011;6334;48.696;2.114;2023-02-22T23:12:18;6.20;;;4.00;;
12535;SDS011;6334;48.696;2.114;2023-02-22T23:14:49;5.00;;;4.20;;
12535;SDS011;6334;48.696;2.114;2023-02-22T23:17:20;5.90;;;4.47;;
12535;SDS011;6334;48.696;2.114;2023-02-22T23:19:53;8.13;;;4.27;;
12535;SDS011;6334;48.696;2.114;2023-02-22T23:22:23;10.80;;;5.33;;
12535;SDS011;6334;48.696;2.114;2023-02-22T23:24:52;6.37;;;4.40;;
12535;SDS011;6334;48.696;2.114;2023-02-22T23:27:31;10.64;;;5.31;;
12535;SDS011;6334;48.696;2.114;2023-02-22T23:30:08;8.02;;;4.94;;
12535;SDS011;6334;48.696;2.114;2023-02-22T23:32:41;9.50;;;4.43;;
12535;SDS011;6334;48.696;2.114;2023-02-22T23:35:10;8.07;;;5.05;;
12535;SDS011;6334;48.696;2.114;2023-02-22T23:37:42;8.56;;;4.60;;
12535;SDS011;6334;48.696;2.114;2023-02-22T23:40:12;6.45;;;4.92;;
12535;SDS011;6334;48.696;2.114;2023-02-22T23:42:45;8.37;;;5.47;;